sensor_id;sensor_type;location;lat;lon;timestamp;temperature;humidity
39675;DHT22;27790;50.840;4.386;2023-04-05T00:01:34;7.50;77.10
39675;DHT22;27790;50.840;4.386;2023-04-05T00:04:01;7.50;76.80
39675;DHT22;27790;50.840;4.386;2023-04-05T00:06:29;7.40;76.60
39675;DHT22;27790;50.840;4.386;2023-04-05T00:08:59;7.40;77.40
39675;DHT22;27790;50.840;4.386;2023-04-05T00:11:28;7.40;76.60
39675;DHT22;27790;50.840;4.386;2023-04-05T00:14:00;7.40;76.70
39675;DHT22;27790;50.840;4.386;2023-04-05T00:16:27;7.40;77.00
39675;DHT22;27790;50.840;4.386;2023-04-05T00:18:54;7.40;77.20
39675;DHT22;27790;50.840;4.386;2023-04-05T00:21:21;7.40;78.00
39675;DHT22;27790;50.840;4.386;2023-04-05T00:23:53;7.40;78.50
39675;DHT22;27790;50.840;4.386;2023-04-05T00:26:20;7.40;78.60
39675;DHT22;27790;50.840;4.386;2023-04-05T00:28:49;7.40;78.70
39675;DHT22;27790;50.840;4.386;2023-04-05T00:31:15;7.40;78.70
39675;DHT22;27790;50.840;4.386;2023-04-05T00:33:40;7.40;78.50
39675;DHT22;27790;50.840;4.386;2023-04-05T00:38:36;7.40;78.20
39675;DHT22;27790;50.840;4.386;2023-04-05T00:41:01;7.40;78.50
39675;DHT22;27790;50.840;4.386;2023-04-05T00:43:27;7.40;78.90
39675;DHT22;27790;50.840;4.386;2023-04-05T00:45:53;7.30;79.20
39675;DHT22;27790;50.840;4.386;2023-04-05T00:48:19;7.30;79.50
39675;DHT22;27790;50.840;4.386;2023-04-05T00:50:48;7.30;79.60
39675;DHT22;27790;50.840;4.386;2023-04-05T00:53:17;7.20;80.10
39675;DHT22;27790;50.840;4.386;2023-04-05T00:55:45;7.20;79.90
39675;DHT22;27790;50.840;4.386;2023-04-05T00:58:12;7.20;79.60
39675;DHT22;27790;50.840;4.386;2023-04-05T01:00:38;7.20;79.90
39675;DHT22;27790;50.840;4.386;2023-04-05T01:03:05;7.10;80.40
39675;DHT22;27790;50.840;4.386;2023-04-05T01:05:43;7.10;80.90
39675;DHT22;27790;50.840;4.386;2023-04-05T01:11:00;7.00;81.40
39675;DHT22;27790;50.840;4.386;2023-04-05T01:13:31;7.00;81.60
39675;DHT22;27790;50.840;4.386;2023-04-05T01:15:57;6.90;81.60
39675;DHT22;27790;50.840;4.386;2023-04-05T01:18:23;6.90;81.80
39675;DHT22;27790;50.840;4.386;2023-04-05T01:23:59;6.90;82.10
39675;DHT22;27790;50.840;4.386;2023-04-05T01:26:46;6.90;82.00
39675;DHT22;27790;50.840;4.386;2023-04-05T01:32:01;6.80;81.80
39675;DHT22;27790;50.840;4.386;2023-04-05T01:34:40;6.80;82.70
39675;DHT22;27790;50.840;4.386;2023-04-05T01:37:12;6.80;82.80
39675;DHT22;27790;50.840;4.386;2023-04-05T01:39:40;6.70;82.40
39675;DHT22;27790;50.840;4.386;2023-04-05T01:42:07;6.70;82.90
39675;DHT22;27790;50.840;4.386;2023-04-05T01:44:33;6.70;83.00
39675;DHT22;27790;50.840;4.386;2023-04-05T01:46:58;6.70;82.60
39675;DHT22;27790;50.840;4.386;2023-04-05T01:49:24;6.70;83.10
39675;DHT22;27790;50.840;4.386;2023-04-05T01:51:50;6.70;84.00
39675;DHT22;27790;50.840;4.386;2023-04-05T01:54:15;6.70;84.30
39675;DHT22;27790;50.840;4.386;2023-04-05T01:56:41;6.60;85.40
39675;DHT22;27790;50.840;4.386;2023-04-05T01:59:07;6.60;85.10
39675;DHT22;27790;50.840;4.386;2023-04-05T02:01:32;6.60;85.50
39675;DHT22;27790;50.840;4.386;2023-04-05T02:03:58;6.60;85.20
39675;DHT22;27790;50.840;4.386;2023-04-05T02:06:23;6.60;84.80
39675;DHT22;27790;50.840;4.386;2023-04-05T02:08:49;6.60;84.60
39675;DHT22;27790;50.840;4.386;2023-04-05T02:11:15;6.50;84.50
39675;DHT22;27790;50.840;4.386;2023-04-05T02:13:40;6.50;84.30
39675;DHT22;27790;50.840;4.386;2023-04-05T02:16:06;6.50;84.30
39675;DHT22;27790;50.840;4.386;2023-04-05T02:18:31;6.50;85.00
39675;DHT22;27790;50.840;4.386;2023-04-05T02:21:04;6.50;85.10
39675;DHT22;27790;50.840;4.386;2023-04-05T02:23:30;6.40;85.30
39675;DHT22;27790;50.840;4.386;2023-04-05T02:25:57;6.40;85.30
39675;DHT22;27790;50.840;4.386;2023-04-05T02:28:23;6.30;85.20
39675;DHT22;27790;50.840;4.386;2023-04-05T02:30:48;6.30;85.10
39675;DHT22;27790;50.840;4.386;2023-04-05T02:33:14;6.30;85.30
39675;DHT22;27790;50.840;4.386;2023-04-05T02:35:40;6.30;85.40
39675;DHT22;27790;50.840;4.386;2023-04-05T02:38:05;6.30;85.70
39675;DHT22;27790;50.840;4.386;2023-04-05T02:40:31;6.30;85.90
39675;DHT22;27790;50.840;4.386;2023-04-05T02:42:57;6.30;86.30
39675;DHT22;27790;50.840;4.386;2023-04-05T02:45:23;6.30;86.90
39675;DHT22;27790;50.840;4.386;2023-04-05T02:47:48;6.30;87.20
39675;DHT22;27790;50.840;4.386;2023-04-05T02:50:14;6.20;87.10
39675;DHT22;27790;50.840;4.386;2023-04-05T02:52:45;6.20;87.00
39675;DHT22;27790;50.840;4.386;2023-04-05T02:55:11;6.20;87.20
39675;DHT22;27790;50.840;4.386;2023-04-05T02:57:37;6.20;87.40
39675;DHT22;27790;50.840;4.386;2023-04-05T03:00:03;6.20;87.30
39675;DHT22;27790;50.840;4.386;2023-04-05T03:02:29;6.20;87.50
39675;DHT22;27790;50.840;4.386;2023-04-05T03:04:55;6.10;87.50
39675;DHT22;27790;50.840;4.386;2023-04-05T03:07:21;6.10;87.90
39675;DHT22;27790;50.840;4.386;2023-04-05T03:09:50;6.10;88.10
39675;DHT22;27790;50.840;4.386;2023-04-05T03:12:15;6.10;88.10
39675;DHT22;27790;50.840;4.386;2023-04-05T03:14:42;6.10;88.20
39675;DHT22;27790;50.840;4.386;2023-04-05T03:17:10;6.10;88.40
39675;DHT22;27790;50.840;4.386;2023-04-05T03:19:36;6.10;88.60
39675;DHT22;27790;50.840;4.386;2023-04-05T03:22:02;6.00;88.90
39675;DHT22;27790;50.840;4.386;2023-04-05T03:24:27;6.00;89.30
39675;DHT22;27790;50.840;4.386;2023-04-05T03:26:53;6.00;89.40
39675;DHT22;27790;50.840;4.386;2023-04-05T03:29:18;6.00;89.50
39675;DHT22;27790;50.840;4.386;2023-04-05T03:31:44;6.00;89.60
39675;DHT22;27790;50.840;4.386;2023-04-05T03:34:10;6.00;89.70
39675;DHT22;27790;50.840;4.386;2023-04-05T03:36:35;6.00;90.00
39675;DHT22;27790;50.840;4.386;2023-04-05T03:39:11;6.00;90.10
39675;DHT22;27790;50.840;4.386;2023-04-05T03:41:40;6.00;90.20
39675;DHT22;27790;50.840;4.386;2023-04-05T03:44:07;6.00;90.30
39675;DHT22;27790;50.840;4.386;2023-04-05T03:46:33;6.00;90.40
39675;DHT22;27790;50.840;4.386;2023-04-05T03:49:01;6.00;90.40
39675;DHT22;27790;50.840;4.386;2023-04-05T03:51:27;6.00;90.50
39675;DHT22;27790;50.840;4.386;2023-04-05T03:53:52;6.00;90.60
39675;DHT22;27790;50.840;4.386;2023-04-05T03:56:18;6.00;90.60
39675;DHT22;27790;50.840;4.386;2023-04-05T03:58:44;5.90;90.70
39675;DHT22;27790;50.840;4.386;2023-04-05T04:01:10;5.90;90.90
39675;DHT22;27790;50.840;4.386;2023-04-05T04:03:36;5.90;91.00
39675;DHT22;27790;50.840;4.386;2023-04-05T04:06:03;5.90;91.10
39675;DHT22;27790;50.840;4.386;2023-04-05T04:08:29;5.90;91.20
39675;DHT22;27790;50.840;4.386;2023-04-05T04:10:55;5.80;91.10
39675;DHT22;27790;50.840;4.386;2023-04-05T04:13:21;5.80;91.20
39675;DHT22;27790;50.840;4.386;2023-04-05T04:15:47;5.80;91.40
39675;DHT22;27790;50.840;4.386;2023-04-05T04:18:13;5.80;91.50
39675;DHT22;27790;50.840;4.386;2023-04-05T04:20:38;5.80;91.50
39675;DHT22;27790;50.840;4.386;2023-04-05T04:23:04;5.80;91.50
39675;DHT22;27790;50.840;4.386;2023-04-05T04:25:30;5.80;91.70
39675;DHT22;27790;50.840;4.386;2023-04-05T04:27:56;5.80;91.80
39675;DHT22;27790;50.840;4.386;2023-04-05T04:30:22;5.70;91.90
39675;DHT22;27790;50.840;4.386;2023-04-05T04:32:49;5.70;91.90
39675;DHT22;27790;50.840;4.386;2023-04-05T04:35:27;5.70;92.00
39675;DHT22;27790;50.840;4.386;2023-04-05T04:37:57;5.70;92.10
39675;DHT22;27790;50.840;4.386;2023-04-05T04:42:50;5.70;92.30
39675;DHT22;27790;50.840;4.386;2023-04-05T04:45:17;5.70;92.10
39675;DHT22;27790;50.840;4.386;2023-04-05T04:47:47;5.70;92.20
39675;DHT22;27790;50.840;4.386;2023-04-05T04:50:13;5.70;92.30
39675;DHT22;27790;50.840;4.386;2023-04-05T04:52:41;5.70;92.30
39675;DHT22;27790;50.840;4.386;2023-04-05T04:55:09;5.70;92.30
39675;DHT22;27790;50.840;4.386;2023-04-05T04:57:39;5.70;92.40
39675;DHT22;27790;50.840;4.386;2023-04-05T05:00:07;5.70;92.50
39675;DHT22;27790;50.840;4.386;2023-04-05T05:02:39;5.70;92.60
39675;DHT22;27790;50.840;4.386;2023-04-05T05:05:07;5.70;92.60
39675;DHT22;27790;50.840;4.386;2023-04-05T05:07:34;5.70;92.60
39675;DHT22;27790;50.840;4.386;2023-04-05T05:10:00;5.70;92.50
39675;DHT22;27790;50.840;4.386;2023-04-05T05:12:26;5.70;92.50
39675;DHT22;27790;50.840;4.386;2023-04-05T05:14:52;5.80;92.50
39675;DHT22;27790;50.840;4.386;2023-04-05T05:17:17;5.80;92.60
39675;DHT22;27790;50.840;4.386;2023-04-05T05:19:44;5.80;92.70
39675;DHT22;27790;50.840;4.386;2023-04-05T05:22:10;5.80;92.70
39675;DHT22;27790;50.840;4.386;2023-04-05T05:24:35;5.80;92.70
39675;DHT22;27790;50.840;4.386;2023-04-05T05:27:01;5.80;92.80
39675;DHT22;27790;50.840;4.386;2023-04-05T05:29:27;5.90;92.80
39675;DHT22;27790;50.840;4.386;2023-04-05T05:31:53;5.90;92.70
39675;DHT22;27790;50.840;4.386;2023-04-05T05:34:19;6.00;92.70
39675;DHT22;27790;50.840;4.386;2023-04-05T05:36:45;6.00;92.80
39675;DHT22;27790;50.840;4.386;2023-04-05T05:39:11;6.00;93.00
39675;DHT22;27790;50.840;4.386;2023-04-05T05:41:36;6.10;93.00
39675;DHT22;27790;50.840;4.386;2023-04-05T05:44:02;6.20;92.90
39675;DHT22;27790;50.840;4.386;2023-04-05T05:46:27;6.40;92.80
39675;DHT22;27790;50.840;4.386;2023-04-05T05:48:53;6.60;92.60
39675;DHT22;27790;50.840;4.386;2023-04-05T05:51:19;6.60;92.60
39675;DHT22;27790;50.840;4.386;2023-04-05T05:53:45;6.70;92.60
39675;DHT22;27790;50.840;4.386;2023-04-05T05:56:11;6.80;92.60
39675;DHT22;27790;50.840;4.386;2023-04-05T05:58:37;6.90;92.30
39675;DHT22;27790;50.840;4.386;2023-04-05T06:01:04;7.10;92.30
39675;DHT22;27790;50.840;4.386;2023-04-05T06:03:30;7.20;92.00
39675;DHT22;27790;50.840;4.386;2023-04-05T06:05:57;7.30;91.90
39675;DHT22;27790;50.840;4.386;2023-04-05T06:08:24;7.50;91.80
39675;DHT22;27790;50.840;4.386;2023-04-05T06:10:52;7.70;91.70
39675;DHT22;27790;50.840;4.386;2023-04-05T06:13:18;7.90;91.60
39675;DHT22;27790;50.840;4.386;2023-04-05T06:15:45;8.00;91.40
39675;DHT22;27790;50.840;4.386;2023-04-05T06:18:11;8.10;90.90
39675;DHT22;27790;50.840;4.386;2023-04-05T06:20:37;8.30;90.60
39675;DHT22;27790;50.840;4.386;2023-04-05T06:23:05;8.40;90.50
39675;DHT22;27790;50.840;4.386;2023-04-05T06:25:31;8.60;89.60
39675;DHT22;27790;50.840;4.386;2023-04-05T06:27:56;8.70;87.90
39675;DHT22;27790;50.840;4.386;2023-04-05T06:30:22;8.90;85.50
39675;DHT22;27790;50.840;4.386;2023-04-05T06:32:48;9.10;84.80
39675;DHT22;27790;50.840;4.386;2023-04-05T06:35:22;9.20;83.90
39675;DHT22;27790;50.840;4.386;2023-04-05T06:37:47;9.30;83.10
39675;DHT22;27790;50.840;4.386;2023-04-05T06:40:13;9.40;81.80
39675;DHT22;27790;50.840;4.386;2023-04-05T06:42:39;9.50;81.50
39675;DHT22;27790;50.840;4.386;2023-04-05T06:45:06;9.70;81.60
39675;DHT22;27790;50.840;4.386;2023-04-05T06:47:50;9.80;80.90
39675;DHT22;27790;50.840;4.386;2023-04-05T06:50:16;9.90;79.90
39675;DHT22;27790;50.840;4.386;2023-04-05T06:52:41;10.00;79.30
39675;DHT22;27790;50.840;4.386;2023-04-05T06:55:07;10.10;78.90
39675;DHT22;27790;50.840;4.386;2023-04-05T06:57:33;10.10;78.10
39675;DHT22;27790;50.840;4.386;2023-04-05T06:59:59;10.20;78.40
39675;DHT22;27790;50.840;4.386;2023-04-05T07:02:24;10.40;77.60
39675;DHT22;27790;50.840;4.386;2023-04-05T07:04:50;10.70;76.60
39675;DHT22;27790;50.840;4.386;2023-04-05T07:07:16;11.10;76.60
39675;DHT22;27790;50.840;4.386;2023-04-05T07:09:42;11.50;75.00
39675;DHT22;27790;50.840;4.386;2023-04-05T07:12:08;12.10;74.00
39675;DHT22;27790;50.840;4.386;2023-04-05T07:14:35;12.70;73.70
39675;DHT22;27790;50.840;4.386;2023-04-05T07:17:04;13.30;73.50
39675;DHT22;27790;50.840;4.386;2023-04-05T07:19:33;13.90;72.20
39675;DHT22;27790;50.840;4.386;2023-04-05T07:21:58;14.60;70.20
39675;DHT22;27790;50.840;4.386;2023-04-05T07:24:25;15.10;68.40
39675;DHT22;27790;50.840;4.386;2023-04-05T07:26:50;15.50;67.50
39675;DHT22;27790;50.840;4.386;2023-04-05T07:29:16;15.90;66.00
39675;DHT22;27790;50.840;4.386;2023-04-05T07:31:42;16.30;65.20
39675;DHT22;27790;50.840;4.386;2023-04-05T07:34:08;16.60;63.90
39675;DHT22;27790;50.840;4.386;2023-04-05T07:36:33;17.10;62.80
39675;DHT22;27790;50.840;4.386;2023-04-05T07:38:59;17.50;62.40
39675;DHT22;27790;50.840;4.386;2023-04-05T07:41:27;17.90;62.00
39675;DHT22;27790;50.840;4.386;2023-04-05T07:43:56;18.00;60.80
39675;DHT22;27790;50.840;4.386;2023-04-05T07:46:22;18.20;59.60
39675;DHT22;27790;50.840;4.386;2023-04-05T07:48:48;18.60;60.00
39675;DHT22;27790;50.840;4.386;2023-04-05T07:51:13;18.90;58.10
39675;DHT22;27790;50.840;4.386;2023-04-05T07:53:39;18.90;54.60
39675;DHT22;27790;50.840;4.386;2023-04-05T07:56:06;18.90;53.60
39675;DHT22;27790;50.840;4.386;2023-04-05T07:58:33;19.00;52.70
39675;DHT22;27790;50.840;4.386;2023-04-05T08:01:01;19.00;53.40
39675;DHT22;27790;50.840;4.386;2023-04-05T08:03:28;18.90;55.50
39675;DHT22;27790;50.840;4.386;2023-04-05T08:05:54;18.90;57.90
39675;DHT22;27790;50.840;4.386;2023-04-05T08:08:21;19.10;55.80
39675;DHT22;27790;50.840;4.386;2023-04-05T08:10:47;19.20;55.10
39675;DHT22;27790;50.840;4.386;2023-04-05T08:13:13;19.20;54.40
39675;DHT22;27790;50.840;4.386;2023-04-05T08:15:39;19.20;53.40
39675;DHT22;27790;50.840;4.386;2023-04-05T08:18:05;19.20;53.60
39675;DHT22;27790;50.840;4.386;2023-04-05T08:20:31;19.10;53.00
39675;DHT22;27790;50.840;4.386;2023-04-05T08:22:57;19.20;52.50
39675;DHT22;27790;50.840;4.386;2023-04-05T08:25:22;19.40;52.30
39675;DHT22;27790;50.840;4.386;2023-04-05T08:27:48;19.50;52.10
39675;DHT22;27790;50.840;4.386;2023-04-05T08:30:13;19.50;52.30
39675;DHT22;27790;50.840;4.386;2023-04-05T08:32:40;19.70;51.60
39675;DHT22;27790;50.840;4.386;2023-04-05T08:35:06;19.80;50.70
39675;DHT22;27790;50.840;4.386;2023-04-05T08:37:35;19.70;49.20
39675;DHT22;27790;50.840;4.386;2023-04-05T08:40:04;19.60;50.60
39675;DHT22;27790;50.840;4.386;2023-04-05T08:42:36;19.50;50.90
39675;DHT22;27790;50.840;4.386;2023-04-05T08:45:04;19.30;50.70
39675;DHT22;27790;50.840;4.386;2023-04-05T08:47:35;19.30;51.40
39675;DHT22;27790;50.840;4.386;2023-04-05T08:50:02;19.50;50.90
39675;DHT22;27790;50.840;4.386;2023-04-05T08:52:30;19.60;51.00
39675;DHT22;27790;50.840;4.386;2023-04-05T08:54:56;19.60;50.00
39675;DHT22;27790;50.840;4.386;2023-04-05T08:57:24;19.80;49.40
39675;DHT22;27790;50.840;4.386;2023-04-05T08:59:54;19.90;51.60
39675;DHT22;27790;50.840;4.386;2023-04-05T09:02:22;20.40;52.50
39675;DHT22;27790;50.840;4.386;2023-04-05T09:04:49;20.60;50.10
39675;DHT22;27790;50.840;4.386;2023-04-05T09:07:16;20.90;49.90
39675;DHT22;27790;50.840;4.386;2023-04-05T09:09:46;21.10;50.10
39675;DHT22;27790;50.840;4.386;2023-04-05T09:12:13;21.10;47.70
39675;DHT22;27790;50.840;4.386;2023-04-05T09:14:40;20.80;48.80
39675;DHT22;27790;50.840;4.386;2023-04-05T09:17:10;20.00;47.80
39675;DHT22;27790;50.840;4.386;2023-04-05T09:19:36;19.00;48.10
39675;DHT22;27790;50.840;4.386;2023-04-05T09:22:11;18.40;48.90
39675;DHT22;27790;50.840;4.386;2023-04-05T09:24:42;17.20;49.50
39675;DHT22;27790;50.840;4.386;2023-04-05T09:27:18;16.40;50.40
39675;DHT22;27790;50.840;4.386;2023-04-05T09:29:48;15.80;50.70
39675;DHT22;27790;50.840;4.386;2023-04-05T09:32:16;15.10;51.80
39675;DHT22;27790;50.840;4.386;2023-04-05T09:34:43;14.70;54.30
39675;DHT22;27790;50.840;4.386;2023-04-05T09:39:40;14.10;53.70
39675;DHT22;27790;50.840;4.386;2023-04-05T09:42:15;13.90;55.00
39675;DHT22;27790;50.840;4.386;2023-04-05T09:44:56;13.70;55.40
39675;DHT22;27790;50.840;4.386;2023-04-05T09:47:24;13.60;54.60
39675;DHT22;27790;50.840;4.386;2023-04-05T09:49:50;13.50;55.90
39675;DHT22;27790;50.840;4.386;2023-04-05T09:54:47;13.40;56.80
39675;DHT22;27790;50.840;4.386;2023-04-05T09:57:15;13.20;54.60
39675;DHT22;27790;50.840;4.386;2023-04-05T09:59:41;13.00;54.90
39675;DHT22;27790;50.840;4.386;2023-04-05T10:02:10;12.90;55.90
39675;DHT22;27790;50.840;4.386;2023-04-05T10:04:40;12.80;58.50
39675;DHT22;27790;50.840;4.386;2023-04-05T10:07:11;13.00;58.50
39675;DHT22;27790;50.840;4.386;2023-04-05T10:09:41;13.10;57.00
39675;DHT22;27790;50.840;4.386;2023-04-05T10:12:07;13.00;56.50
39675;DHT22;27790;50.840;4.386;2023-04-05T10:14:34;13.00;56.90
39675;DHT22;27790;50.840;4.386;2023-04-05T10:22:35;13.10;56.60
39675;DHT22;27790;50.840;4.386;2023-04-05T10:25:13;13.20;56.80
39675;DHT22;27790;50.840;4.386;2023-04-05T10:28:42;13.20;58.00
39675;DHT22;27790;50.840;4.386;2023-04-05T10:30:50;13.30;56.20
39675;DHT22;27790;50.840;4.386;2023-04-05T10:38:28;13.40;56.60
39675;DHT22;27790;50.840;4.386;2023-04-05T10:40:56;13.40;58.30
39675;DHT22;27790;50.840;4.386;2023-04-05T10:43:24;13.40;58.30
39675;DHT22;27790;50.840;4.386;2023-04-05T10:45:53;13.30;56.90
39675;DHT22;27790;50.840;4.386;2023-04-05T10:51:09;13.30;59.90
39675;DHT22;27790;50.840;4.386;2023-04-05T10:53:36;13.40;58.30
39675;DHT22;27790;50.840;4.386;2023-04-05T10:56:02;13.50;56.60
39675;DHT22;27790;50.840;4.386;2023-04-05T10:58:29;13.50;57.70
39675;DHT22;27790;50.840;4.386;2023-04-05T11:00:55;13.60;57.00
39675;DHT22;27790;50.840;4.386;2023-04-05T11:06:21;13.30;56.60
39675;DHT22;27790;50.840;4.386;2023-04-05T11:08:58;13.20;56.80
39675;DHT22;27790;50.840;4.386;2023-04-05T11:11:24;13.30;57.30
39675;DHT22;27790;50.840;4.386;2023-04-05T11:13:53;13.40;56.50
39675;DHT22;27790;50.840;4.386;2023-04-05T11:16:20;13.40;55.80
39675;DHT22;27790;50.840;4.386;2023-04-05T11:18:48;13.40;56.50
39675;DHT22;27790;50.840;4.386;2023-04-05T11:21:23;13.50;59.30
39675;DHT22;27790;50.840;4.386;2023-04-05T11:24:06;13.70;57.70
39675;DHT22;27790;50.840;4.386;2023-04-05T11:29:09;13.90;57.50
39675;DHT22;27790;50.840;4.386;2023-04-05T11:31:35;13.90;57.40
39675;DHT22;27790;50.840;4.386;2023-04-05T11:34:23;13.90;57.60
39675;DHT22;27790;50.840;4.386;2023-04-05T11:36:48;13.70;57.90
39675;DHT22;27790;50.840;4.386;2023-04-05T11:41:44;13.90;56.10
39675;DHT22;27790;50.840;4.386;2023-04-05T11:44:14;13.90;57.30
39675;DHT22;27790;50.840;4.386;2023-04-05T11:46:45;13.90;56.50
39675;DHT22;27790;50.840;4.386;2023-04-05T11:49:11;13.90;54.90
39675;DHT22;27790;50.840;4.386;2023-04-05T11:51:41;13.80;54.80
39675;DHT22;27790;50.840;4.386;2023-04-05T11:54:10;13.80;55.80
39675;DHT22;27790;50.840;4.386;2023-04-05T11:56:36;13.90;55.50
39675;DHT22;27790;50.840;4.386;2023-04-05T11:59:02;14.00;55.60
39675;DHT22;27790;50.840;4.386;2023-04-05T12:01:28;14.10;55.00
39675;DHT22;27790;50.840;4.386;2023-04-05T12:03:54;14.10;56.10
39675;DHT22;27790;50.840;4.386;2023-04-05T12:06:25;14.20;55.60
39675;DHT22;27790;50.840;4.386;2023-04-05T12:08:51;14.30;56.80
39675;DHT22;27790;50.840;4.386;2023-04-05T12:11:27;14.30;57.20
39675;DHT22;27790;50.840;4.386;2023-04-05T12:13:56;14.30;55.70
39675;DHT22;27790;50.840;4.386;2023-04-05T12:16:23;14.20;55.40
39675;DHT22;27790;50.840;4.386;2023-04-05T12:18:57;14.20;55.00
39675;DHT22;27790;50.840;4.386;2023-04-05T12:21:23;14.10;54.90
39675;DHT22;27790;50.840;4.386;2023-04-05T12:23:49;14.20;54.40
39675;DHT22;27790;50.840;4.386;2023-04-05T12:26:16;14.00;55.70
39675;DHT22;27790;50.840;4.386;2023-04-05T12:28:54;14.00;55.20
39675;DHT22;27790;50.840;4.386;2023-04-05T12:31:34;13.90;55.10
39675;DHT22;27790;50.840;4.386;2023-04-05T12:34:00;13.90;56.40
39675;DHT22;27790;50.840;4.386;2023-04-05T12:36:26;13.90;54.80
39675;DHT22;27790;50.840;4.386;2023-04-05T12:38:53;14.00;54.60
39675;DHT22;27790;50.840;4.386;2023-04-05T12:41:29;14.10;55.20
39675;DHT22;27790;50.840;4.386;2023-04-05T12:43:55;14.10;55.30
39675;DHT22;27790;50.840;4.386;2023-04-05T12:46:37;14.10;57.50
39675;DHT22;27790;50.840;4.386;2023-04-05T12:49:03;14.20;55.60
39675;DHT22;27790;50.840;4.386;2023-04-05T12:51:30;14.20;55.40
39675;DHT22;27790;50.840;4.386;2023-04-05T12:53:56;14.30;57.50
39675;DHT22;27790;50.840;4.386;2023-04-05T12:56:22;14.30;55.30
39675;DHT22;27790;50.840;4.386;2023-04-05T12:58:48;14.40;54.90
39675;DHT22;27790;50.840;4.386;2023-04-05T13:01:15;14.30;55.50
39675;DHT22;27790;50.840;4.386;2023-04-05T13:03:43;14.20;55.30
39675;DHT22;27790;50.840;4.386;2023-04-05T13:06:09;14.10;56.50
39675;DHT22;27790;50.840;4.386;2023-04-05T13:08:34;14.10;55.10
39675;DHT22;27790;50.840;4.386;2023-04-05T13:11:00;14.10;55.50
39675;DHT22;27790;50.840;4.386;2023-04-05T13:13:26;14.10;54.80
39675;DHT22;27790;50.840;4.386;2023-04-05T13:15:51;14.10;54.70
39675;DHT22;27790;50.840;4.386;2023-04-05T13:18:17;14.20;54.50
39675;DHT22;27790;50.840;4.386;2023-04-05T13:20:43;14.20;55.10
39675;DHT22;27790;50.840;4.386;2023-04-05T13:23:09;14.30;54.60
39675;DHT22;27790;50.840;4.386;2023-04-05T13:25:39;14.40;54.30
39675;DHT22;27790;50.840;4.386;2023-04-05T13:28:06;14.40;53.90
39675;DHT22;27790;50.840;4.386;2023-04-05T13:30:32;14.50;54.00
39675;DHT22;27790;50.840;4.386;2023-04-05T13:32:57;14.60;54.10
39675;DHT22;27790;50.840;4.386;2023-04-05T13:35:23;14.70;54.80
39675;DHT22;27790;50.840;4.386;2023-04-05T13:37:49;14.70;53.70
39675;DHT22;27790;50.840;4.386;2023-04-05T13:40:15;14.60;53.80
39675;DHT22;27790;50.840;4.386;2023-04-05T13:42:43;14.50;53.20
39675;DHT22;27790;50.840;4.386;2023-04-05T13:45:10;14.50;55.80
39675;DHT22;27790;50.840;4.386;2023-04-05T13:47:36;14.60;54.90
39675;DHT22;27790;50.840;4.386;2023-04-05T13:50:02;14.80;54.60
39675;DHT22;27790;50.840;4.386;2023-04-05T13:52:28;14.90;53.70
39675;DHT22;27790;50.840;4.386;2023-04-05T13:54:54;15.00;54.00
39675;DHT22;27790;50.840;4.386;2023-04-05T13:57:20;15.00;55.00
39675;DHT22;27790;50.840;4.386;2023-04-05T13:59:45;15.00;55.50
39675;DHT22;27790;50.840;4.386;2023-04-05T14:02:11;14.90;53.50
39675;DHT22;27790;50.840;4.386;2023-04-05T14:04:38;14.80;52.80
39675;DHT22;27790;50.840;4.386;2023-04-05T14:07:04;14.70;53.00
39675;DHT22;27790;50.840;4.386;2023-04-05T14:09:31;14.70;53.70
39675;DHT22;27790;50.840;4.386;2023-04-05T14:11:57;14.60;52.70
39675;DHT22;27790;50.840;4.386;2023-04-05T14:14:23;14.60;52.80
39675;DHT22;27790;50.840;4.386;2023-04-05T14:16:49;14.70;53.20
39675;DHT22;27790;50.840;4.386;2023-04-05T14:19:14;14.70;52.50
39675;DHT22;27790;50.840;4.386;2023-04-05T14:21:41;14.80;52.80
39675;DHT22;27790;50.840;4.386;2023-04-05T14:24:06;14.80;53.00
39675;DHT22;27790;50.840;4.386;2023-04-05T14:26:32;14.60;53.00
39675;DHT22;27790;50.840;4.386;2023-04-05T14:28:58;14.60;52.80
39675;DHT22;27790;50.840;4.386;2023-04-05T14:31:24;14.60;53.70
39675;DHT22;27790;50.840;4.386;2023-04-05T14:33:50;14.60;55.20
39675;DHT22;27790;50.840;4.386;2023-04-05T14:36:16;14.60;53.90
39675;DHT22;27790;50.840;4.386;2023-04-05T14:38:41;14.60;54.20
39675;DHT22;27790;50.840;4.386;2023-04-05T14:41:07;14.70;54.30
39675;DHT22;27790;50.840;4.386;2023-04-05T14:43:33;14.60;53.70
39675;DHT22;27790;50.840;4.386;2023-04-05T14:45:58;14.70;54.20
39675;DHT22;27790;50.840;4.386;2023-04-05T14:48:24;14.70;53.30
39675;DHT22;27790;50.840;4.386;2023-04-05T14:50:50;14.70;53.10
39675;DHT22;27790;50.840;4.386;2023-04-05T14:53:15;14.60;53.30
39675;DHT22;27790;50.840;4.386;2023-04-05T14:55:41;14.60;53.90
39675;DHT22;27790;50.840;4.386;2023-04-05T14:58:07;14.50;53.50
39675;DHT22;27790;50.840;4.386;2023-04-05T15:00:33;14.40;54.80
39675;DHT22;27790;50.840;4.386;2023-04-05T15:02:59;14.40;55.50
39675;DHT22;27790;50.840;4.386;2023-04-05T15:05:24;14.40;55.70
39675;DHT22;27790;50.840;4.386;2023-04-05T15:07:50;14.30;55.90
39675;DHT22;27790;50.840;4.386;2023-04-05T15:10:15;14.30;56.30
39675;DHT22;27790;50.840;4.386;2023-04-05T15:12:43;14.30;55.90
39675;DHT22;27790;50.840;4.386;2023-04-05T15:15:08;14.30;55.60
39675;DHT22;27790;50.840;4.386;2023-04-05T15:17:34;14.30;55.20
39675;DHT22;27790;50.840;4.386;2023-04-05T15:20:00;14.30;55.80
39675;DHT22;27790;50.840;4.386;2023-04-05T15:22:25;14.20;55.90
39675;DHT22;27790;50.840;4.386;2023-04-05T15:24:51;14.20;55.90
39675;DHT22;27790;50.840;4.386;2023-04-05T15:27:17;14.20;55.40
39675;DHT22;27790;50.840;4.386;2023-04-05T15:29:42;14.20;56.20
39675;DHT22;27790;50.840;4.386;2023-04-05T15:32:08;14.20;56.50
39675;DHT22;27790;50.840;4.386;2023-04-05T15:34:34;14.30;56.20
39675;DHT22;27790;50.840;4.386;2023-04-05T15:36:59;14.30;57.50
39675;DHT22;27790;50.840;4.386;2023-04-05T15:39:25;14.40;56.90
39675;DHT22;27790;50.840;4.386;2023-04-05T15:41:51;14.40;56.10
39675;DHT22;27790;50.840;4.386;2023-04-05T15:44:17;14.30;56.40
39675;DHT22;27790;50.840;4.386;2023-04-05T15:46:42;14.30;56.80
39675;DHT22;27790;50.840;4.386;2023-04-05T15:49:08;14.30;56.50
39675;DHT22;27790;50.840;4.386;2023-04-05T15:51:35;14.20;56.20
39675;DHT22;27790;50.840;4.386;2023-04-05T15:54:04;14.10;57.10
39675;DHT22;27790;50.840;4.386;2023-04-05T15:56:29;14.10;56.70
39675;DHT22;27790;50.840;4.386;2023-04-05T15:58:56;14.20;56.20
39675;DHT22;27790;50.840;4.386;2023-04-05T16:01:22;14.20;57.30
39675;DHT22;27790;50.840;4.386;2023-04-05T16:03:47;14.20;57.10
39675;DHT22;27790;50.840;4.386;2023-04-05T16:06:13;14.20;56.60
39675;DHT22;27790;50.840;4.386;2023-04-05T16:08:39;14.20;56.30
39675;DHT22;27790;50.840;4.386;2023-04-05T16:11:04;14.30;56.80
39675;DHT22;27790;50.840;4.386;2023-04-05T16:13:33;14.30;57.40
39675;DHT22;27790;50.840;4.386;2023-04-05T16:15:59;14.30;56.10
39675;DHT22;27790;50.840;4.386;2023-04-05T16:18:25;14.30;56.80